sensor_id;sensor_type;location;lat;lon;timestamp;P1;durP1;ratioP1;P2;durP2;ratioP2
19780;SDS011;10050;55.492;13.506;2023-08-01T00:01:29;1.90;;;1.20;;
19780;SDS011;10050;55.492;13.506;2023-08-01T00:03:55;2.90;;;1.07;;
19780;SDS011;10050;55.492;13.506;2023-08-01T00:06:21;1.13;;;1.10;;
19780;SDS011;10050;55.492;13.506;2023-08-01T00:08:47;2.70;;;1.30;;
19780;SDS011;10050;55.492;13.506;2023-08-01T00:11:13;1.67;;;1.47;;
19780;SDS011;10050;55.492;13.506;2023-08-01T00:13:39;1.53;;;0.87;;
19780;SDS011;10050;55.492;13.506;2023-08-01T00:16:05;4.10;;;1.10;;
19780;SDS011;10050;55.492;13.506;2023-08-01T00:18:31;2.63;;;1.20;;
19780;SDS011;10050;55.492;13.506;2023-08-01T00:20:57;1.10;;;1.00;;
19780;SDS011;10050;55.492;13.506;2023-08-01T00:23:23;1.63;;;1.30;;
19780;SDS011;10050;55.492;13.506;2023-08-01T00:25:49;1.27;;;1.13;;
19780;SDS011;10050;55.492;13.506;2023-08-01T00:28:21;3.70;;;1.00;;
19780;SDS011;10050;55.492;13.506;2023-08-01T00:30:47;1.53;;;1.10;;
19780;SDS011;10050;55.492;13.506;2023-08-01T00:33:13;1.63;;;0.70;;
19780;SDS011;10050;55.492;13.506;2023-08-01T00:35:39;1.37;;;1.20;;
19780;SDS011;10050;55.492;13.506;2023-08-01T00:38:05;1.27;;;0.97;;
19780;SDS011;10050;55.492;13.506;2023-08-01T00:40:31;1.27;;;0.83;;
19780;SDS011;10050;55.492;13.506;2023-08-01T00:42:57;1.20;;;1.10;;
19780;SDS011;10050;55.492;13.506;2023-08-01T00:45:23;1.73;;;0.90;;
19780;SDS011;10050;55.492;13.506;2023-08-01T00:47:50;0.97;;;0.97;;
19780;SDS011;10050;55.492;13.506;2023-08-01T00:50:17;1.80;;;0.90;;
19780;SDS011;10050;55.492;13.506;2023-08-01T00:52:45;1.23;;;1.03;;
19780;SDS011;10050;55.492;13.506;2023-08-01T00:55:11;1.03;;;1.00;;
19780;SDS011;10050;55.492;13.506;2023-08-01T00:57:37;0.90;;;0.90;;
19780;SDS011;10050;55.492;13.506;2023-08-01T01:00:03;1.30;;;1.17;;
19780;SDS011;10050;55.492;13.506;2023-08-01T01:02:29;2.57;;;1.07;;
19780;SDS011;10050;55.492;13.506;2023-08-01T01:04:55;1.57;;;0.97;;
19780;SDS011;10050;55.492;13.506;2023-08-01T01:07:20;0.90;;;0.90;;
19780;SDS011;10050;55.492;13.506;2023-08-01T01:09:47;1.10;;;1.00;;
19780;SDS011;10050;55.492;13.506;2023-08-01T01:12:13;2.53;;;1.20;;
19780;SDS011;10050;55.492;13.506;2023-08-01T01:14:39;2.73;;;0.87;;
19780;SDS011;10050;55.492;13.506;2023-08-01T01:17:04;2.83;;;0.80;;
19780;SDS011;10050;55.492;13.506;2023-08-01T01:19:30;1.17;;;1.00;;
19780;SDS011;10050;55.492;13.506;2023-08-01T01:21:56;0.90;;;0.90;;
19780;SDS011;10050;55.492;13.506;2023-08-01T01:24:23;1.33;;;0.70;;
19780;SDS011;10050;55.492;13.506;2023-08-01T01:26:51;1.17;;;0.90;;
19780;SDS011;10050;55.492;13.506;2023-08-01T01:29:18;1.17;;;1.07;;
19780;SDS011;10050;55.492;13.506;2023-08-01T01:31:44;1.60;;;1.03;;
19780;SDS011;10050;55.492;13.506;2023-08-01T01:34:13;0.80;;;0.80;;
19780;SDS011;10050;55.492;13.506;2023-08-01T01:36:38;1.00;;;0.90;;
19780;SDS011;10050;55.492;13.506;2023-08-01T01:39:04;2.03;;;1.10;;
19780;SDS011;10050;55.492;13.506;2023-08-01T01:41:30;3.10;;;1.80;;
19780;SDS011;10050;55.492;13.506;2023-08-01T01:43:56;1.23;;;0.63;;
19780;SDS011;10050;55.492;13.506;2023-08-01T01:46:21;2.93;;;0.97;;
19780;SDS011;10050;55.492;13.506;2023-08-01T01:48:47;2.00;;;0.97;;
19780;SDS011;10050;55.492;13.506;2023-08-01T01:51:13;1.80;;;1.13;;
19780;SDS011;10050;55.492;13.506;2023-08-01T01:53:38;1.33;;;1.10;;
19780;SDS011;10050;55.492;13.506;2023-08-01T01:56:04;1.43;;;1.03;;
19780;SDS011;10050;55.492;13.506;2023-08-01T01:58:29;2.40;;;1.07;;
19780;SDS011;10050;55.492;13.506;2023-08-01T02:00:55;3.03;;;1.60;;
19780;SDS011;10050;55.492;13.506;2023-08-01T02:03:21;0.97;;;0.90;;
19780;SDS011;10050;55.492;13.506;2023-08-01T02:05:46;2.40;;;1.20;;
19780;SDS011;10050;55.492;13.506;2023-08-01T02:08:12;2.00;;;1.10;;
19780;SDS011;10050;55.492;13.506;2023-08-01T02:10:38;1.17;;;1.10;;
19780;SDS011;10050;55.492;13.506;2023-08-01T02:13:03;1.40;;;1.30;;
19780;SDS011;10050;55.492;13.506;2023-08-01T02:15:29;5.50;;;1.27;;
19780;SDS011;10050;55.492;13.506;2023-08-01T02:17:55;1.50;;;1.33;;
19780;SDS011;10050;55.492;13.506;2023-08-01T02:20:21;3.17;;;1.37;;
19780;SDS011;10050;55.492;13.506;2023-08-01T02:22:47;4.57;;;1.20;;
19780;SDS011;10050;55.492;13.506;2023-08-01T02:25:12;1.73;;;0.93;;
19780;SDS011;10050;55.492;13.506;2023-08-01T02:27:38;5.33;;;1.43;;
19780;SDS011;10050;55.492;13.506;2023-08-01T02:30:04;1.73;;;1.20;;
19780;SDS011;10050;55.492;13.506;2023-08-01T02:32:30;1.20;;;1.20;;
19780;SDS011;10050;55.492;13.506;2023-08-01T02:34:56;1.70;;;0.97;;
19780;SDS011;10050;55.492;13.506;2023-08-01T02:37:21;4.37;;;1.00;;
19780;SDS011;10050;55.492;13.506;2023-08-01T02:39:47;2.90;;;1.23;;
19780;SDS011;10050;55.492;13.506;2023-08-01T02:42:13;1.83;;;1.30;;
19780;SDS011;10050;55.492;13.506;2023-08-01T02:44:38;1.80;;;1.30;;
19780;SDS011;10050;55.492;13.506;2023-08-01T02:47:04;2.07;;;1.00;;
19780;SDS011;10050;55.492;13.506;2023-08-01T02:49:31;2.40;;;1.23;;
19780;SDS011;10050;55.492;13.506;2023-08-01T02:51:57;0.80;;;0.80;;
19780;SDS011;10050;55.492;13.506;2023-08-01T02:54:23;3.63;;;1.20;;
19780;SDS011;10050;55.492;13.506;2023-08-01T02:56:49;1.13;;;1.10;;
19780;SDS011;10050;55.492;13.506;2023-08-01T02:59:16;1.20;;;1.10;;
19780;SDS011;10050;55.492;13.506;2023-08-01T03:01:43;2.43;;;1.50;;
19780;SDS011;10050;55.492;13.506;2023-08-01T03:04:08;1.90;;;1.13;;
19780;SDS011;10050;55.492;13.506;2023-08-01T03:06:36;1.40;;;1.30;;
19780;SDS011;10050;55.492;13.506;2023-08-01T03:09:03;1.23;;;1.13;;
19780;SDS011;10050;55.492;13.506;2023-08-01T03:11:32;1.40;;;1.30;;
19780;SDS011;10050;55.492;13.506;2023-08-01T03:14:02;1.43;;;1.07;;
19780;SDS011;10050;55.492;13.506;2023-08-01T03:16:29;2.40;;;1.20;;
19780;SDS011;10050;55.492;13.506;2023-08-01T03:18:55;1.60;;;1.30;;
19780;SDS011;10050;55.492;13.506;2023-08-01T03:21:21;1.57;;;1.47;;
19780;SDS011;10050;55.492;13.506;2023-08-01T03:23:47;2.63;;;1.70;;
19780;SDS011;10050;55.492;13.506;2023-08-01T03:26:12;1.67;;;1.57;;
19780;SDS011;10050;55.492;13.506;2023-08-01T03:28:40;2.00;;;1.90;;
19780;SDS011;10050;55.492;13.506;2023-08-01T03:31:05;1.87;;;1.77;;
19780;SDS011;10050;55.492;13.506;2023-08-01T03:33:32;4.60;;;2.37;;
19780;SDS011;10050;55.492;13.506;2023-08-01T03:35:58;3.27;;;2.20;;
19780;SDS011;10050;55.492;13.506;2023-08-01T03:38:24;2.80;;;2.60;;
19780;SDS011;10050;55.492;13.506;2023-08-01T03:40:49;2.80;;;2.60;;
19780;SDS011;10050;55.492;13.506;2023-08-01T03:43:15;2.63;;;2.43;;
19780;SDS011;10050;55.492;13.506;2023-08-01T03:45:41;3.30;;;3.00;;
19780;SDS011;10050;55.492;13.506;2023-08-01T03:48:06;3.30;;;3.10;;
19780;SDS011;10050;55.492;13.506;2023-08-01T03:50:32;2.83;;;2.63;;
19780;SDS011;10050;55.492;13.506;2023-08-01T03:52:57;4.43;;;2.87;;
19780;SDS011;10050;55.492;13.506;2023-08-01T03:55:23;3.07;;;2.77;;
19780;SDS011;10050;55.492;13.506;2023-08-01T03:57:48;4.77;;;3.07;;
19780;SDS011;10050;55.492;13.506;2023-08-01T04:00:14;2.90;;;2.70;;
19780;SDS011;10050;55.492;13.506;2023-08-01T04:02:41;7.27;;;2.90;;
19780;SDS011;10050;55.492;13.506;2023-08-01T04:05:07;4.17;;;2.97;;
19780;SDS011;10050;55.492;13.506;2023-08-01T04:07:34;2.83;;;2.63;;
19780;SDS011;10050;55.492;13.506;2023-08-01T04:10:03;2.87;;;2.57;;
19780;SDS011;10050;55.492;13.506;2023-08-01T04:12:32;3.90;;;2.50;;
19780;SDS011;10050;55.492;13.506;2023-08-01T04:14:59;3.20;;;2.87;;
19780;SDS011;10050;55.492;13.506;2023-08-01T04:17:25;3.33;;;2.90;;
19780;SDS011;10050;55.492;13.506;2023-08-01T04:19:50;3.40;;;3.10;;
19780;SDS011;10050;55.492;13.506;2023-08-01T04:22:16;4.07;;;3.23;;
19780;SDS011;10050;55.492;13.506;2023-08-01T04:24:42;4.63;;;3.70;;
19780;SDS011;10050;55.492;13.506;2023-08-01T04:27:07;3.93;;;3.33;;
19780;SDS011;10050;55.492;13.506;2023-08-01T04:29:33;3.67;;;3.30;;
19780;SDS011;10050;55.492;13.506;2023-08-01T04:31:59;4.67;;;3.80;;
19780;SDS011;10050;55.492;13.506;2023-08-01T04:34:25;4.27;;;3.50;;
19780;SDS011;10050;55.492;13.506;2023-08-01T04:36:50;4.00;;;3.60;;
19780;SDS011;10050;55.492;13.506;2023-08-01T04:39:16;5.40;;;3.60;;
19780;SDS011;10050;55.492;13.506;2023-08-01T04:41:41;4.43;;;3.07;;
19780;SDS011;10050;55.492;13.506;2023-08-01T04:44:07;3.40;;;3.10;;
19780;SDS011;10050;55.492;13.506;2023-08-01T04:46:33;2.47;;;2.03;;
19780;SDS011;10050;55.492;13.506;2023-08-01T04:48:58;2.80;;;2.60;;
19780;SDS011;10050;55.492;13.506;2023-08-01T04:51:24;3.00;;;2.47;;
19780;SDS011;10050;55.492;13.506;2023-08-01T04:53:50;5.17;;;2.50;;
19780;SDS011;10050;55.492;13.506;2023-08-01T04:56:16;3.07;;;2.63;;
19780;SDS011;10050;55.492;13.506;2023-08-01T04:58:42;3.57;;;3.03;;
19780;SDS011;10050;55.492;13.506;2023-08-01T05:01:07;3.20;;;3.00;;
19780;SDS011;10050;55.492;13.506;2023-08-01T05:03:33;3.40;;;3.10;;
19780;SDS011;10050;55.492;13.506;2023-08-01T05:05:59;3.00;;;2.80;;
19780;SDS011;10050;55.492;13.506;2023-08-01T05:08:24;3.40;;;3.10;;
19780;SDS011;10050;55.492;13.506;2023-08-01T05:10:50;2.50;;;2.30;;
19780;SDS011;10050;55.492;13.506;2023-08-01T05:13:16;2.00;;;1.80;;
19780;SDS011;10050;55.492;13.506;2023-08-01T05:15:44;1.47;;;1.40;;
19780;SDS011;10050;55.492;13.506;2023-08-01T05:18:12;1.27;;;1.23;;
19780;SDS011;10050;55.492;13.506;2023-08-01T05:20:38;2.77;;;1.20;;
19780;SDS011;10050;55.492;13.506;2023-08-01T05:23:04;0.87;;;0.83;;
19780;SDS011;10050;55.492;13.506;2023-08-01T05:25:29;1.57;;;0.60;;
19780;SDS011;10050;55.492;13.506;2023-08-01T05:27:55;1.37;;;0.70;;
19780;SDS011;10050;55.492;13.506;2023-08-01T05:30:21;2.27;;;0.80;;
19780;SDS011;10050;55.492;13.506;2023-08-01T05:32:46;2.83;;;0.87;;
19780;SDS011;10050;55.492;13.506;2023-08-01T05:35:12;0.97;;;0.60;;
19780;SDS011;10050;55.492;13.506;2023-08-01T05:37:37;1.37;;;0.60;;
19780;SDS011;10050;55.492;13.506;2023-08-01T05:40:04;0.47;;;0.40;;
19780;SDS011;10050;55.492;13.506;2023-08-01T05:42:30;0.83;;;0.60;;
19780;SDS011;10050;55.492;13.506;2023-08-01T05:44:55;1.10;;;0.40;;
19780;SDS011;10050;55.492;13.506;2023-08-01T05:47:21;0.50;;;0.40;;
19780;SDS011;10050;55.492;13.506;2023-08-01T05:49:48;0.83;;;0.60;;
19780;SDS011;10050;55.492;13.506;2023-08-01T05:52:14;1.47;;;0.50;;
19780;SDS011;10050;55.492;13.506;2023-08-01T05:54:39;0.40;;;0.40;;
19780;SDS011;10050;55.492;13.506;2023-08-01T05:57:05;0.60;;;0.60;;
19780;SDS011;10050;55.492;13.506;2023-08-01T05:59:31;0.50;;;0.50;;
19780;SDS011;10050;55.492;13.506;2023-08-01T06:01:57;0.40;;;0.40;;
19780;SDS011;10050;55.492;13.506;2023-08-01T06:04:22;0.50;;;0.50;;
19780;SDS011;10050;55.492;13.506;2023-08-01T06:06:48;0.73;;;0.50;;
19780;SDS011;10050;55.492;13.506;2023-08-01T06:09:14;1.37;;;0.50;;
19780;SDS011;10050;55.492;13.506;2023-08-01T06:11:39;0.30;;;0.30;;
19780;SDS011;10050;55.492;13.506;2023-08-01T06:14:05;0.73;;;0.40;;
19780;SDS011;10050;55.492;13.506;2023-08-01T06:16:31;2.63;;;0.40;;
19780;SDS011;10050;55.492;13.506;2023-08-01T06:18:57;0.40;;;0.40;;
19780;SDS011;10050;55.492;13.506;2023-08-01T06:21:27;1.03;;;0.30;;
19780;SDS011;10050;55.492;13.506;2023-08-01T06:23:53;1.17;;;0.40;;
19780;SDS011;10050;55.492;13.506;2023-08-01T06:26:19;0.40;;;0.40;;
19780;SDS011;10050;55.492;13.506;2023-08-01T06:28:44;0.50;;;0.50;;
19780;SDS011;10050;55.492;13.506;2023-08-01T06:31:10;0.37;;;0.37;;
19780;SDS011;10050;55.492;13.506;2023-08-01T06:33:36;0.40;;;0.40;;
19780;SDS011;10050;55.492;13.506;2023-08-01T06:36:01;0.40;;;0.40;;
19780;SDS011;10050;55.492;13.506;2023-08-01T06:38:27;0.30;;;0.30;;
19780;SDS011;10050;55.492;13.506;2023-08-01T06:40:53;1.53;;;0.40;;
19780;SDS011;10050;55.492;13.506;2023-08-01T06:43:18;0.50;;;0.50;;
19780;SDS011;10050;55.492;13.506;2023-08-01T06:45:47;0.60;;;0.60;;
19780;SDS011;10050;55.492;13.506;2023-08-01T06:48:15;1.13;;;0.70;;
19780;SDS011;10050;55.492;13.506;2023-08-01T06:50:41;0.80;;;0.80;;
19780;SDS011;10050;55.492;13.506;2023-08-01T06:53:06;0.50;;;0.50;;
19780;SDS011;10050;55.492;13.506;2023-08-01T06:55:33;0.50;;;0.50;;
19780;SDS011;10050;55.492;13.506;2023-08-01T06:57:59;0.60;;;0.47;;
19780;SDS011;10050;55.492;13.506;2023-08-01T07:00:24;0.40;;;0.40;;
19780;SDS011;10050;55.492;13.506;2023-08-01T07:02:50;1.33;;;0.50;;
19780;SDS011;10050;55.492;13.506;2023-08-01T07:05:16;2.13;;;0.50;;
19780;SDS011;10050;55.492;13.506;2023-08-01T07:07:41;0.73;;;0.60;;
19780;SDS011;10050;55.492;13.506;2023-08-01T07:10:07;0.60;;;0.60;;
19780;SDS011;10050;55.492;13.506;2023-08-01T07:12:33;0.63;;;0.60;;
19780;SDS011;10050;55.492;13.506;2023-08-01T07:14:58;0.50;;;0.50;;
19780;SDS011;10050;55.492;13.506;2023-08-01T07:17:24;0.50;;;0.50;;
19780;SDS011;10050;55.492;13.506;2023-08-01T07:19:50;0.60;;;0.60;;
19780;SDS011;10050;55.492;13.506;2023-08-01T07:22:15;0.60;;;0.60;;
19780;SDS011;10050;55.492;13.506;2023-08-01T07:24:41;0.67;;;0.67;;
19780;SDS011;10050;55.492;13.506;2023-08-01T07:27:06;1.77;;;1.03;;
19780;SDS011;10050;55.492;13.506;2023-08-01T07:29:32;1.30;;;1.20;;
19780;SDS011;10050;55.492;13.506;2023-08-01T07:31:58;1.70;;;1.57;;
19780;SDS011;10050;55.492;13.506;2023-08-01T07:34:23;1.60;;;1.50;;
19780;SDS011;10050;55.492;13.506;2023-08-01T07:36:49;3.03;;;2.10;;
19780;SDS011;10050;55.492;13.506;2023-08-01T07:39:15;1.27;;;1.17;;
19780;SDS011;10050;55.492;13.506;2023-08-01T07:41:41;2.03;;;0.93;;
19780;SDS011;10050;55.492;13.506;2023-08-01T07:44:07;0.90;;;0.90;;
19780;SDS011;10050;55.492;13.506;2023-08-01T07:46:32;0.80;;;0.80;;
19780;SDS011;10050;55.492;13.506;2023-08-01T07:48:58;0.90;;;0.90;;
19780;SDS011;10050;55.492;13.506;2023-08-01T07:51:24;0.67;;;0.67;;
19780;SDS011;10050;55.492;13.506;2023-08-01T07:53:51;1.00;;;1.00;;
19780;SDS011;10050;55.492;13.506;2023-08-01T07:56:18;3.77;;;0.77;;
19780;SDS011;10050;55.492;13.506;2023-08-01T07:58:44;2.17;;;1.20;;
19780;SDS011;10050;55.492;13.506;2023-08-01T08:01:10;2.87;;;1.70;;
19780;SDS011;10050;55.492;13.506;2023-08-01T08:03:35;5.50;;;1.40;;
19780;SDS011;10050;55.492;13.506;2023-08-01T08:06:01;1.63;;;1.10;;
19780;SDS011;10050;55.492;13.506;2023-08-01T08:08:28;0.90;;;0.90;;
19780;SDS011;10050;55.492;13.506;2023-08-01T08:10:54;1.70;;;1.27;;
19780;SDS011;10050;55.492;13.506;2023-08-01T08:13:20;1.23;;;0.93;;
19780;SDS011;10050;55.492;13.506;2023-08-01T08:15:46;0.90;;;0.90;;
19780;SDS011;10050;55.492;13.506;2023-08-01T08:18:12;0.90;;;0.90;;
19780;SDS011;10050;55.492;13.506;2023-08-01T08:20:42;0.87;;;0.87;;
19780;SDS011;10050;55.492;13.506;2023-08-01T08:23:09;1.10;;;1.00;;
19780;SDS011;10050;55.492;13.506;2023-08-01T08:25:35;1.03;;;1.03;;
19780;SDS011;10050;55.492;13.506;2023-08-01T08:28:01;3.77;;;1.00;;
19780;SDS011;10050;55.492;13.506;2023-08-01T08:30:27;1.67;;;0.97;;
19780;SDS011;10050;55.492;13.506;2023-08-01T08:32:52;0.80;;;0.80;;
19780;SDS011;10050;55.492;13.506;2023-08-01T08:35:18;0.83;;;0.83;;
19780;SDS011;10050;55.492;13.506;2023-08-01T08:37:44;1.37;;;1.10;;
19780;SDS011;10050;55.492;13.506;2023-08-01T08:40:09;0.90;;;0.90;;
19780;SDS011;10050;55.492;13.506;2023-08-01T08:42:37;0.97;;;0.87;;
19780;SDS011;10050;55.492;13.506;2023-08-01T08:45:03;1.07;;;0.73;;
19780;SDS011;10050;55.492;13.506;2023-08-01T08:47:30;3.47;;;0.70;;
19780;SDS011;10050;55.492;13.506;2023-08-01T08:50:00;0.80;;;0.80;;
19780;SDS011;10050;55.492;13.506;2023-08-01T08:52:26;2.47;;;0.80;;
19780;SDS011;10050;55.492;13.506;2023-08-01T08:54:52;0.67;;;0.67;;
19780;SDS011;10050;55.492;13.506;2023-08-01T08:57:18;1.47;;;0.87;;
19780;SDS011;10050;55.492;13.506;2023-08-01T08:59:46;0.67;;;0.67;;
19780;SDS011;10050;55.492;13.506;2023-08-01T09:02:13;0.90;;;0.90;;
19780;SDS011;10050;55.492;13.506;2023-08-01T09:04:41;0.90;;;0.90;;
19780;SDS011;10050;55.492;13.506;2023-08-01T09:07:07;1.40;;;0.80;;
19780;SDS011;10050;55.492;13.506;2023-08-01T09:09:35;0.90;;;0.90;;
19780;SDS011;10050;55.492;13.506;2023-08-01T09:12:02;0.67;;;0.67;;
19780;SDS011;10050;55.492;13.506;2023-08-01T09:14:30;1.30;;;0.40;;
19780;SDS011;10050;55.492;13.506;2023-08-01T09:17:05;0.50;;;0.50;;
19780;SDS011;10050;55.492;13.506;2023-08-01T09:19:32;1.80;;;0.50;;
19780;SDS011;10050;55.492;13.506;2023-08-01T09:21:58;0.50;;;0.50;;
19780;SDS011;10050;55.492;13.506;2023-08-01T09:24:25;0.40;;;0.40;;
19780;SDS011;10050;55.492;13.506;2023-08-01T09:26:51;0.60;;;0.60;;
19780;SDS011;10050;55.492;13.506;2023-08-01T09:29:16;0.50;;;0.50;;
19780;SDS011;10050;55.492;13.506;2023-08-01T09:31:43;0.43;;;0.43;;
19780;SDS011;10050;55.492;13.506;2023-08-01T09:34:21;0.50;;;0.50;;
19780;SDS011;10050;55.492;13.506;2023-08-01T09:36:51;0.47;;;0.47;;
19780;SDS011;10050;55.492;13.506;2023-08-01T09:39:22;0.50;;;0.50;;
19780;SDS011;10050;55.492;13.506;2023-08-01T09:41:55;0.70;;;0.70;;
19780;SDS011;10050;55.492;13.506;2023-08-01T09:44:25;0.43;;;0.43;;
19780;SDS011;10050;55.492;13.506;2023-08-01T09:49:26;0.40;;;0.40;;
19780;SDS011;10050;55.492;13.506;2023-08-01T09:51:52;0.50;;;0.50;;
19780;SDS011;10050;55.492;13.506;2023-08-01T09:54:19;0.40;;;0.40;;
19780;SDS011;10050;55.492;13.506;2023-08-01T09:56:46;0.70;;;0.70;;
19780;SDS011;10050;55.492;13.506;2023-08-01T09:59:16;0.57;;;0.57;;
19780;SDS011;10050;55.492;13.506;2023-08-01T10:01:48;0.50;;;0.50;;
19780;SDS011;10050;55.492;13.506;2023-08-01T10:04:23;0.53;;;0.50;;
19780;SDS011;10050;55.492;13.506;2023-08-01T10:06:58;0.60;;;0.60;;
19780;SDS011;10050;55.492;13.506;2023-08-01T10:09:25;0.43;;;0.43;;
19780;SDS011;10050;55.492;13.506;2023-08-01T10:11:52;0.50;;;0.50;;
19780;SDS011;10050;55.492;13.506;2023-08-01T10:14:21;0.60;;;0.60;;
19780;SDS011;10050;55.492;13.506;2023-08-01T10:16:47;0.60;;;0.60;;
19780;SDS011;10050;55.492;13.506;2023-08-01T10:19:14;0.70;;;0.60;;
19780;SDS011;10050;55.492;13.506;2023-08-01T10:21:42;0.50;;;0.50;;
19780;SDS011;10050;55.492;13.506;2023-08-01T10:24:09;0.50;;;0.50;;
19780;SDS011;10050;55.492;13.506;2023-08-01T10:26:36;0.50;;;0.50;;
19780;SDS011;10050;55.492;13.506;2023-08-01T10:29:02;0.53;;;0.53;;
19780;SDS011;10050;55.492;13.506;2023-08-01T10:31:27;0.43;;;0.43;;
19780;SDS011;10050;55.492;13.506;2023-08-01T10:34:02;0.60;;;0.60;;
19780;SDS011;10050;55.492;13.506;2023-08-01T10:36:29;0.57;;;0.57;;
19780;SDS011;10050;55.492;13.506;2023-08-01T10:38:58;0.47;;;0.47;;
19780;SDS011;10050;55.492;13.506;2023-08-01T10:49:18;0.67;;;0.67;;
19780;SDS011;10050;55.492;13.506;2023-08-01T10:51:46;0.70;;;0.70;;
19780;SDS011;10050;55.492;13.506;2023-08-01T10:54:21;0.90;;;0.90;;
19780;SDS011;10050;55.492;13.506;2023-08-01T10:56:51;1.37;;;0.70;;
19780;SDS011;10050;55.492;13.506;2023-08-01T10:59:21;1.53;;;1.17;;
19780;SDS011;10050;55.492;13.506;2023-08-01T11:01:51;0.80;;;0.80;;
19780;SDS011;10050;55.492;13.506;2023-08-01T11:04:18;1.03;;;1.03;;
19780;SDS011;10050;55.492;13.506;2023-08-01T11:06:52;0.80;;;0.80;;
19780;SDS011;10050;55.492;13.506;2023-08-01T11:09:21;0.70;;;0.70;;
19780;SDS011;10050;55.492;13.506;2023-08-01T11:11:51;0.83;;;0.83;;
19780;SDS011;10050;55.492;13.506;2023-08-01T11:14:22;3.37;;;1.20;;
19780;SDS011;10050;55.492;13.506;2023-08-01T11:16:50;1.00;;;1.00;;
19780;SDS011;10050;55.492;13.506;2023-08-01T11:19:25;1.27;;;1.17;;
19780;SDS011;10050;55.492;13.506;2023-08-01T11:21:52;2.30;;;1.20;;
19780;SDS011;10050;55.492;13.506;2023-08-01T11:24:19;0.80;;;0.80;;
19780;SDS011;10050;55.492;13.506;2023-08-01T11:26:46;1.00;;;1.00;;
19780;SDS011;10050;55.492;13.506;2023-08-01T11:29:17;0.90;;;0.90;;
19780;SDS011;10050;55.492;13.506;2023-08-01T11:31:54;1.30;;;0.90;;
19780;SDS011;10050;55.492;13.506;2023-08-01T11:34:27;0.90;;;0.90;;
19780;SDS011;10050;55.492;13.506;2023-08-01T11:36:52;1.00;;;1.00;;
19780;SDS011;10050;55.492;13.506;2023-08-01T11:39:21;1.00;;;1.00;;
19780;SDS011;10050;55.492;13.506;2023-08-01T11:41:47;1.20;;;0.77;;
19780;SDS011;10050;55.492;13.506;2023-08-01T11:44:13;0.87;;;0.80;;
19780;SDS011;10050;55.492;13.506;2023-08-01T11:46:39;0.83;;;0.83;;
19780;SDS011;10050;55.492;13.506;2023-08-01T11:49:06;0.80;;;0.80;;
19780;SDS011;10050;55.492;13.506;2023-08-01T11:51:42;0.80;;;0.80;;
19780;SDS011;10050;55.492;13.506;2023-08-01T11:54:09;1.13;;;1.00;;
19780;SDS011;10050;55.492;13.506;2023-08-01T11:56:36;0.90;;;0.90;;
19780;SDS011;10050;55.492;13.506;2023-08-01T11:59:16;1.33;;;1.07;;
19780;SDS011;10050;55.492;13.506;2023-08-01T12:01:43;1.13;;;1.07;;
19780;SDS011;10050;55.492;13.506;2023-08-01T12:04:10;0.70;;;0.70;;
19780;SDS011;10050;55.492;13.506;2023-08-01T12:06:36;0.80;;;0.80;;
19780;SDS011;10050;55.492;13.506;2023-08-01T12:09:11;1.07;;;0.93;;
19780;SDS011;10050;55.492;13.506;2023-08-01T12:11:39;1.97;;;0.80;;
19780;SDS011;10050;55.492;13.506;2023-08-01T12:14:09;0.80;;;0.80;;
19780;SDS011;10050;55.492;13.506;2023-08-01T12:16:42;0.90;;;0.90;;
19780;SDS011;10050;55.492;13.506;2023-08-01T12:19:10;1.10;;;0.93;;
19780;SDS011;10050;55.492;13.506;2023-08-01T12:21:36;0.80;;;0.80;;
19780;SDS011;10050;55.492;13.506;2023-08-01T12:24:02;0.90;;;0.80;;
19780;SDS011;10050;55.492;13.506;2023-08-01T12:26:28;1.57;;;0.80;;
19780;SDS011;10050;55.492;13.506;2023-08-01T12:28:54;1.20;;;1.13;;
19780;SDS011;10050;55.492;13.506;2023-08-01T12:31:20;0.90;;;0.90;;
19780;SDS011;10050;55.492;13.506;2023-08-01T12:33:47;1.63;;;1.00;;
19780;SDS011;10050;55.492;13.506;2023-08-01T12:36:14;1.20;;;1.20;;
19780;SDS011;10050;55.492;13.506;2023-08-01T12:38:40;1.40;;;1.30;;
19780;SDS011;10050;55.492;13.506;2023-08-01T12:41:06;1.70;;;1.60;;
19780;SDS011;10050;55.492;13.506;2023-08-01T12:43:32;1.63;;;1.53;;
19780;SDS011;10050;55.492;13.506;2023-08-01T12:45:58;1.40;;;1.30;;
19780;SDS011;10050;55.492;13.506;2023-08-01T12:48:24;2.13;;;1.70;;
19780;SDS011;10050;55.492;13.506;2023-08-01T12:50:50;1.83;;;1.50;;
19780;SDS011;10050;55.492;13.506;2023-08-01T12:53:16;1.97;;;1.87;;
19780;SDS011;10050;55.492;13.506;2023-08-01T12:55:45;1.93;;;1.83;;
19780;SDS011;10050;55.492;13.506;2023-08-01T12:58:12;1.93;;;1.83;;
19780;SDS011;10050;55.492;13.506;2023-08-01T13:00:38;3.17;;;2.43;;
19780;SDS011;10050;55.492;13.506;2023-08-01T13:03:05;1.63;;;1.53;;
19780;SDS011;10050;55.492;13.506;2023-08-01T13:05:33;1.90;;;1.70;;
19780;SDS011;10050;55.492;13.506;2023-08-01T13:08:03;1.93;;;1.73;;
19780;SDS011;10050;55.492;13.506;2023-08-01T13:10:36;2.23;;;1.90;;
19780;SDS011;10050;55.492;13.506;2023-08-01T13:13:02;3.27;;;1.90;;
19780;SDS011;10050;55.492;13.506;2023-08-01T13:15:28;1.70;;;1.60;;
19780;SDS011;10050;55.492;13.506;2023-08-01T13:17:55;2.50;;;1.90;;
19780;SDS011;10050;55.492;13.506;2023-08-01T13:20:21;1.90;;;1.80;;
19780;SDS011;10050;55.492;13.506;2023-08-01T13:22:48;1.80;;;1.70;;
19780;SDS011;10050;55.492;13.506;2023-08-01T13:25:15;1.60;;;1.50;;
19780;SDS011;10050;55.492;13.506;2023-08-01T13:27:41;1.80;;;1.70;;
19780;SDS011;10050;55.492;13.506;2023-08-01T13:30:07;1.97;;;1.87;;
19780;SDS011;10050;55.492;13.506;2023-08-01T13:32:33;1.30;;;1.30;;
19780;SDS011;10050;55.492;13.506;2023-08-01T13:34:59;1.60;;;1.50;;
19780;SDS011;10050;55.492;13.506;2023-08-01T13:37:25;2.40;;;1.80;;
19780;SDS011;10050;55.492;13.506;2023-08-01T13:39:53;1.90;;;1.80;;
19780;SDS011;10050;55.492;13.506;2023-08-01T13:42:18;2.80;;;2.20;;
19780;SDS011;10050;55.492;13.506;2023-08-01T13:44:44;3.40;;;1.90;;
19780;SDS011;10050;55.492;13.506;2023-08-01T13:47:09;2.67;;;2.03;;
19780;SDS011;10050;55.492;13.506;2023-08-01T13:49:35;2.87;;;2.10;;
19780;SDS011;10050;55.492;13.506;2023-08-01T13:52:01;5.00;;;2.20;;
19780;SDS011;10050;55.492;13.506;2023-08-01T13:54:28;3.20;;;2.37;;
19780;SDS011;10050;55.492;13.506;2023-08-01T13:56:53;2.83;;;2.53;;
19780;SDS011;10050;55.492;13.506;2023-08-01T13:59:19;3.27;;;2.33;;
19780;SDS011;10050;55.492;13.506;2023-08-01T14:01:45;3.93;;;2.80;;
19780;SDS011;10050;55.492;13.506;2023-08-01T14:04:11;4.20;;;2.83;;
19780;SDS011;10050;55.492;13.506;2023-08-01T14:06:39;5.53;;;2.90;;
19780;SDS011;10050;55.492;13.506;2023-08-01T14:09:06;4.57;;;3.10;;
19780;SDS011;10050;55.492;13.506;2023-08-01T14:11:33;6.10;;;3.80;;
19780;SDS011;10050;55.492;13.506;2023-08-01T14:13:59;5.43;;;3.53;;
19780;SDS011;10050;55.492;13.506;2023-08-01T14:16:25;3.07;;;2.70;;
19780;SDS011;10050;55.492;13.506;2023-08-01T14:18:50;5.07;;;2.70;;
19780;SDS011;10050;55.492;13.506;2023-08-01T14:21:16;4.17;;;3.37;;
19780;SDS011;10050;55.492;13.506;2023-08-01T14:23:41;4.20;;;3.40;;
19780;SDS011;10050;55.492;13.506;2023-08-01T14:26:08;4.43;;;3.40;;
19780;SDS011;10050;55.492;13.506;2023-08-01T14:28:33;3.67;;;3.10;;
19780;SDS011;10050;55.492;13.506;2023-08-01T14:31:02;4.80;;;3.20;;
19780;SDS011;10050;55.492;13.506;2023-08-01T14:33:29;3.50;;;3.13;;
19780;SDS011;10050;55.492;13.506;2023-08-01T14:35:55;3.70;;;3.40;;
19780;SDS011;10050;55.492;13.506;2023-08-01T14:38:21;5.43;;;2.87;;
19780;SDS011;10050;55.492;13.506;2023-08-01T14:40:47;5.73;;;3.20;;